Time,TemperatureF,DewpointF,PressureIn,WindDirection,WindDirectionDegrees,WindSpeedMPH,WindSpeedGustMPH,Humidity,HourlyPrecipIn,Conditions,Clouds,dailyrainin,SolarRadiationWatts/m^2,SoftwareType,DateUTC
2013-08-13 00:00:00,66.6,62.6,29.92,SW,222,0.0,0.0,87,0.00,,,0.05,0.00,VWS V14.01,2013-08-13 04:00:00,
2013-08-13 00:01:00,66.4,62.4,29.92,SW,222,0.0,0.0,87,0.00,,,0.00,0.00,VWS V14.01,2013-08-13 04:01:00,
2013-08-13 00:06:00,66.4,62.4,29.92,SW,222,0.0,0.0,87,0.00,,,0.00,0.00,VWS V14.01,2013-08-13 04:06:00,
2013-08-13 00:11:00,66.3,62.3,29.92,SW,222,0.0,0.0,87,0.00,,,0.00,0.00,VWS V14.01,2013-08-13 04:11:00,
2013-08-13 00:15:00,66.3,62.3,29.92,SW,222,0.0,0.0,87,0.00,,,0.00,0.00,VWS V14.01,2013-08-13 04:15:00,
2013-08-13 00:16:00,66.3,62.6,29.92,SW,222,0.0,0.0,88,0.00,,,0.00,0.00,VWS V14.01,2013-08-13 04:16:00,
2013-08-13 00:21:00,66.1,62.5,29.92,SW,222,0.0,0.0,88,0.00,,,0.00,0.00,VWS V14.01,2013-08-13 04:21:00,
2013-08-13 00:26:00,66.1,62.5,29.92,SW,222,0.0,0.0,88,0.00,,,0.00,0.00,VWS V14.01,2013-08-13 04:26:00,
2013-08-13 00:30:00,66.1,62.5,29.92,SW,222,0.0,0.0,88,0.00,,,0.00,0.00,VWS V14.01,2013-08-13 04:30:00,
2013-08-13 00:31:00,66.1,62.5,29.92,SW,222,0.0,0.0,88,0.00,,,0.00,0.00,VWS V14.01,2013-08-13 04:31:00,
2013-08-13 00:36:00,66.1,62.5,29.92,SW,222,0.0,0.0,88,0.00,,,0.00,0.00,VWS V14.01,2013-08-13 04:36:00,
2013-08-13 00:41:00,66.0,62.7,29.92,SW,222,0.0,0.0,89,0.00,,,0.00,0.00,VWS V14.01,2013-08-13 04:41:00,
2013-08-13 00:45:00,66.0,62.7,29.91,SW,222,0.0,0.0,89,0.00,,,0.00,0.00,VWS V14.01,2013-08-13 04:45:00,
2013-08-13 00:46:00,66.0,62.7,29.91,SW,222,0.0,0.0,89,0.00,,,0.00,0.00,VWS V14.01,2013-08-13 04:46:00,
2013-08-13 00:51:00,66.0,62.7,29.91,SW,222,0.0,0.0,89,0.00,,,0.00,0.00,VWS V14.01,2013-08-13 04:51:00,
2013-08-13 00:56:00,66.0,62.7,29.91,SW,222,0.0,0.0,89,0.00,,,0.00,0.00,VWS V14.01,2013-08-13 04:56:00,
2013-08-13 01:00:00,65.8,62.5,29.90,SW,222,0.0,0.0,89,0.00,,,0.00,0.00,VWS V14.01,2013-08-13 05:00:00,
2013-08-13 01:01:00,65.8,62.5,29.90,SW,222,0.0,0.0,89,0.00,,,0.00,0.00,VWS V14.01,2013-08-13 05:01:00,
2013-08-13 01:06:00,65.8,62.8,29.90,SW,222,0.0,0.0,90,0.00,,,0.00,0.00,VWS V14.01,2013-08-13 05:06:00,
2013-08-13 01:11:00,65.6,62.6,29.90,SW,222,0.0,0.0,90,0.00,,,0.00,0.00,VWS V14.01,2013-08-13 05:11:00,
2013-08-13 01:15:00,65.6,62.6,29.90,SW,222,0.0,0.0,90,0.00,,,0.00,0.00,VWS V14.01,2013-08-13 05:15:00,
2013-08-13 01:16:00,65.6,62.6,29.90,SW,222,0.0,0.0,90,0.00,,,0.00,0.00,VWS V14.01,2013-08-13 05:16:00,
2013-08-13 01:21:00,65.6,62.6,29.90,SW,222,0.0,0.0,90,0.00,,,0.00,0.00,VWS V14.01,2013-08-13 05:21:00,
2013-08-13 01:26:00,65.6,62.6,29.90,SW,222,0.0,0.0,90,0.00,,,0.00,0.00,VWS V14.01,2013-08-13 05:26:00,
2013-08-13 01:30:00,65.5,62.5,29.90,SW,222,0.0,0.0,90,0.00,,,0.00,0.00,VWS V14.01,2013-08-13 05:30:00,
2013-08-13 01:31:00,65.5,62.5,29.90,SW,222,0.0,0.0,90,0.00,,,0.00,0.00,VWS V14.01,2013-08-13 05:31:00,
2013-08-13 01:36:00,65.5,62.5,29.90,SW,222,0.0,0.0,90,0.00,,,0.00,0.00,VWS V14.01,2013-08-13 05:36:00,
2013-08-13 01:41:00,65.5,62.5,29.90,SW,222,0.0,0.0,90,0.00,,,0.00,0.00,VWS V14.01,2013-08-13 05:41:00,
2013-08-13 01:45:00,65.5,62.5,29.89,SW,222,0.0,0.0,90,0.00,,,0.00,0.00,VWS V14.01,2013-08-13 05:45:00,
2013-08-13 01:46:00,65.5,62.5,29.89,SW,222,0.0,0.0,90,0.00,,,0.00,0.00,VWS V14.01,2013-08-13 05:46:00,
2013-08-13 01:51:00,65.5,62.8,29.89,SW,222,0.0,0.0,91,0.00,,,0.00,0.00,VWS V14.01,2013-08-13 05:51:00,
2013-08-13 01:56:00,65.5,62.8,29.89,SW,222,0.0,0.0,91,0.00,,,0.00,0.00,VWS V14.01,2013-08-13 05:56:00,
2013-08-13 02:00:00,65.5,62.8,29.88,SW,222,0.0,0.0,91,0.00,,,0.00,0.00,VWS V14.01,2013-08-13 06:00:00,
2013-08-13 02:01:00,65.5,62.8,29.88,SW,222,0.0,0.0,91,0.00,,,0.00,0.00,VWS V14.01,2013-08-13 06:01:00,
2013-08-13 02:06:00,65.6,63.2,29.88,SW,222,0.0,0.0,92,0.00,,,0.00,0.00,VWS V14.01,2013-08-13 06:06:00,
2013-08-13 02:11:00,65.6,63.2,29.88,SW,222,0.0,0.0,92,0.00,,,0.00,0.00,VWS V14.01,2013-08-13 06:11:00,
2013-08-13 02:15:00,65.6,63.2,29.88,SW,222,0.0,0.0,92,0.00,,,0.00,0.00,VWS V14.01,2013-08-13 06:15:00,
2013-08-13 02:16:00,65.6,63.2,29.88,SW,222,0.0,0.0,92,0.00,,,0.00,0.00,VWS V14.01,2013-08-13 06:16:00,
2013-08-13 02:21:00,65.6,63.2,29.88,SW,222,0.0,0.0,92,0.00,,,0.00,0.00,VWS V14.01,2013-08-13 06:21:00,
2013-08-13 02:27:00,65.6,63.2,29.88,SW,222,0.0,0.0,92,0.00,,,0.00,0.00,VWS V14.01,2013-08-13 06:27:00,
2013-08-13 02:30:00,65.6,63.2,29.88,SW,222,0.0,0.0,92,0.00,,,0.00,0.00,VWS V14.01,2013-08-13 06:30:00,
2013-08-13 02:32:00,65.6,63.2,29.88,SW,222,0.0,0.0,92,0.00,,,0.00,0.00,VWS V14.01,2013-08-13 06:32:00,
2013-08-13 02:37:00,65.6,63.2,29.88,SW,222,0.0,0.0,92,0.00,,,0.00,0.00,VWS V14.01,2013-08-13 06:37:00,
2013-08-13 02:42:00,65.6,63.2,29.88,SW,222,0.0,0.0,92,0.00,,,0.00,0.00,VWS V14.01,2013-08-13 06:42:00,
2013-08-13 02:45:00,65.6,63.2,29.87,SW,222,0.0,0.0,92,0.00,,,0.00,0.00,VWS V14.01,2013-08-13 06:45:00,
2013-08-13 02:47:00,65.6,63.2,29.87,SW,222,0.0,0.0,92,0.00,,,0.00,0.00,VWS V14.01,2013-08-13 06:47:00,
2013-08-13 02:52:00,65.8,63.4,29.87,SW,222,0.0,0.0,92,0.00,,,0.00,0.00,VWS V14.01,2013-08-13 06:52:00,
2013-08-13 02:57:00,65.8,63.4,29.87,SW,215,0.0,0.0,92,0.00,,,0.00,0.00,VWS V14.01,2013-08-13 06:57:00,
2013-08-13 03:00:00,66.1,64.0,29.86,SW,215,0.0,0.0,93,0.00,,,0.00,0.00,VWS V14.01,2013-08-13 07:00:00,
2013-08-13 03:02:00,66.1,64.0,29.86,SW,215,0.0,0.0,93,0.00,,,0.00,0.00,VWS V14.01,2013-08-13 07:02:00,
2013-08-13 03:07:00,66.3,64.2,29.86,SSW,194,5.0,5.0,93,0.00,,,0.00,0.00,VWS V14.01,2013-08-13 07:07:00,
2013-08-13 03:12:00,67.1,65.3,29.86,WSW,238,1.0,9.0,94,0.00,,,0.00,0.00,VWS V14.01,2013-08-13 07:12:00,
2013-08-13 03:15:00,67.1,65.3,29.85,WSW,246,0.0,9.0,94,0.00,,,0.00,0.00,VWS V14.01,2013-08-13 07:15:00,
2013-08-13 03:17:00,67.1,65.0,29.85,WSW,254,0.0,1.0,93,0.00,,,0.00,0.00,VWS V14.01,2013-08-13 07:17:00,
2013-08-13 03:22:00,67.1,65.0,29.85,WSW,251,0.0,1.0,93,0.00,,,0.00,0.00,VWS V14.01,2013-08-13 07:22:00,
2013-08-13 03:27:00,67.3,65.2,29.85,SW,236,5.0,6.0,93,0.00,,,0.00,0.00,VWS V14.01,2013-08-13 07:27:00,
2013-08-13 03:30:00,68.1,66.6,29.85,SSE,153,4.0,6.0,95,0.00,,,0.00,0.00,VWS V14.01,2013-08-13 07:30:00,
2013-08-13 03:32:00,68.8,67.3,29.85,WSW,257,3.0,5.0,95,0.00,,,0.00,0.00,VWS V14.01,2013-08-13 07:32:00,
2013-08-13 03:37:00,69.1,67.3,29.85,SSW,205,1.0,7.0,94,0.00,,,0.00,0.00,VWS V14.01,2013-08-13 07:37:00,
2013-08-13 03:42:00,69.6,67.8,29.85,West,279,7.0,9.0,94,0.00,,,0.00,0.00,VWS V14.01,2013-08-13 07:42:00,
2013-08-13 03:45:00,69.8,68.0,29.85,WSW,251,7.0,9.0,94,0.00,,,0.00,0.00,VWS V14.01,2013-08-13 07:45:00,
2013-08-13 03:47:00,70.1,68.0,29.85,West,277,0.0,9.0,93,0.00,,,0.00,0.00,VWS V14.01,2013-08-13 07:47:00,
2013-08-13 03:52:00,70.3,68.2,29.85,WSW,256,1.0,9.0,93,0.00,,,0.00,0.00,VWS V14.01,2013-08-13 07:52:00,
2013-08-13 03:57:00,70.4,68.3,29.85,West,266,1.0,9.0,93,0.00,,,0.00,0.00,VWS V14.01,2013-08-13 07:57:00,
2013-08-13 04:00:00,70.4,68.3,29.85,West,269,0.0,9.0,93,0.00,,,0.00,0.00,VWS V14.01,2013-08-13 08:00:00,
2013-08-13 04:02:00,70.6,68.5,29.85,SW,227,5.0,8.0,93,0.00,,,0.00,0.00,VWS V14.01,2013-08-13 08:02:00,
2013-08-13 04:07:00,70.6,68.2,29.85,West,276,4.0,8.0,92,0.00,,,0.00,0.00,VWS V14.01,2013-08-13 08:07:00,
2013-08-13 04:12:00,70.8,68.4,29.85,West,281,2.0,8.0,92,0.00,,,0.00,0.00,VWS V14.01,2013-08-13 08:12:00,
2013-08-13 04:15:00,70.8,68.4,29.84,NW,306,3.0,8.0,92,0.00,,,0.00,0.00,VWS V14.01,2013-08-13 08:15:00,
2013-08-13 04:17:00,70.9,68.5,29.84,WSW,244,3.0,7.0,92,0.00,,,0.00,0.00,VWS V14.01,2013-08-13 08:17:00,
2013-08-13 04:22:00,70.9,68.5,29.84,West,273,2.0,7.0,92,0.00,,,0.00,0.00,VWS V14.01,2013-08-13 08:22:00,
2013-08-13 04:27:00,70.9,68.5,29.84,West,273,0.0,7.0,92,0.00,,,0.00,0.00,VWS V14.01,2013-08-13 08:27:00,
2013-08-13 04:30:00,70.9,68.5,29.83,West,273,0.0,7.0,92,0.00,,,0.00,0.00,VWS V14.01,2013-08-13 08:30:00,
2013-08-13 04:32:00,70.8,68.4,29.83,West,273,0.0,0.0,92,0.00,,,0.00,0.00,VWS V14.01,2013-08-13 08:32:00,
2013-08-13 04:37:00,70.8,68.4,29.83,SW,230,0.0,6.0,92,0.00,,,0.00,0.00,VWS V14.01,2013-08-13 08:37:00,
2013-08-13 04:42:00,70.3,67.2,29.83,West,261,2.0,6.0,90,0.00,,,0.00,0.00,VWS V14.01,2013-08-13 08:42:00,
2013-08-13 04:45:00,70.3,67.6,29.83,West,261,2.0,6.0,91,0.00,,,0.00,0.00,VWS V14.01,2013-08-13 08:45:00,
2013-08-13 04:47:00,69.9,67.2,29.83,West,261,0.0,2.0,91,0.00,,,0.00,0.00,VWS V14.01,2013-08-13 08:47:00,
2013-08-13 04:52:00,69.8,67.1,29.83,West,261,0.0,3.0,91,0.00,,,0.00,0.00,VWS V14.01,2013-08-13 08:52:00,
2013-08-13 04:57:00,69.9,67.2,29.83,West,269,0.0,3.0,91,0.00,,,0.00,0.00,VWS V14.01,2013-08-13 08:57:00,
2013-08-13 05:00:00,69.9,67.5,29.83,West,271,2.0,5.0,92,0.00,,,0.00,0.00,VWS V14.01,2013-08-13 09:00:00,
2013-08-13 05:02:00,70.1,67.7,29.83,West,271,0.0,4.0,92,0.00,,,0.00,0.00,VWS V14.01,2013-08-13 09:02:00,
2013-08-13 05:07:00,70.4,68.0,29.83,WSW,244,5.0,7.0,92,0.00,,,0.00,0.00,VWS V14.01,2013-08-13 09:07:00,
2013-08-13 05:12:00,70.6,68.2,29.83,WSW,243,0.0,7.0,92,0.00,,,0.00,0.00,VWS V14.01,2013-08-13 09:12:00,
2013-08-13 05:15:00,70.6,68.2,29.83,West,268,0.0,7.0,92,0.00,,,0.00,0.00,VWS V14.01,2013-08-13 09:15:00,
2013-08-13 05:17:00,70.8,68.4,29.83,WSW,247,4.0,6.0,92,0.00,,,0.00,0.00,VWS V14.01,2013-08-13 09:17:00,
2013-08-13 05:22:00,70.8,68.4,29.83,South,188,0.0,6.0,92,0.00,,,0.00,0.00,VWS V14.01,2013-08-13 09:22:00,
2013-08-13 05:27:00,70.8,68.4,29.83,SW,220,5.0,6.0,92,0.00,,,0.00,0.00,VWS V14.01,2013-08-13 09:27:00,
2013-08-13 05:30:00,70.8,68.4,29.83,SSW,199,0.0,6.0,92,0.00,,,0.00,0.00,VWS V14.01,2013-08-13 09:30:00,
2013-08-13 05:32:00,70.8,68.4,29.83,West,259,0.0,0.0,92,0.00,,,0.00,0.00,VWS V14.01,2013-08-13 09:32:00,
2013-08-13 05:37:00,70.8,68.4,29.83,WSW,242,0.0,4.0,92,0.00,,,0.00,0.00,VWS V14.01,2013-08-13 09:37:00,
2013-08-13 05:42:00,70.8,68.4,29.83,West,261,2.0,5.0,92,0.00,,,0.00,0.00,VWS V14.01,2013-08-13 09:42:00,
2013-08-13 05:45:00,70.8,68.4,29.82,West,265,2.0,6.0,92,0.00,,,0.00,0.00,VWS V14.01,2013-08-13 09:45:00,
2013-08-13 05:47:00,70.9,68.5,29.82,West,265,5.0,5.0,92,0.00,,,0.00,0.00,VWS V14.01,2013-08-13 09:47:00,
2013-08-13 05:52:00,70.9,68.5,29.82,West,281,5.0,5.0,92,0.00,,,0.00,0.00,VWS V14.01,2013-08-13 09:52:00,
2013-08-13 05:57:00,70.9,68.5,29.82,West,274,1.0,7.0,92,0.01,,,0.01,0.00,VWS V14.01,2013-08-13 09:57:00,
2013-08-13 06:00:00,70.9,68.5,29.82,NW,323,2.0,7.0,92,0.01,,,0.01,0.00,VWS V14.01,2013-08-13 10:00:00,
2013-08-13 06:02:00,70.9,68.5,29.82,West,278,0.0,6.0,92,0.01,,,0.01,0.00,VWS V14.01,2013-08-13 10:02:00,
2013-08-13 06:07:00,70.9,68.5,29.82,NW,317,1.0,6.0,92,0.01,,,0.01,0.00,VWS V14.01,2013-08-13 10:07:00,
2013-08-13 06:12:00,70.9,68.5,29.82,NNW,346,2.0,6.0,92,0.02,,,0.02,0.00,VWS V14.01,2013-08-13 10:12:00,
2013-08-13 06:15:00,70.9,68.5,29.82,NNW,346,5.0,6.0,92,0.02,,,0.02,0.00,VWS V14.01,2013-08-13 10:15:00,
2013-08-13 06:17:00,71.1,68.7,29.82,NW,315,2.0,5.0,92,0.02,,,0.02,0.00,VWS V14.01,2013-08-13 10:17:00,
2013-08-13 06:22:00,71.1,68.7,29.82,NW,313,0.0,5.0,92,0.02,,,0.02,0.00,VWS V14.01,2013-08-13 10:22:00,
2013-08-13 06:27:00,71.1,68.7,29.82,NW,313,0.0,5.0,92,0.02,,,0.02,0.00,VWS V14.01,2013-08-13 10:27:00,
2013-08-13 06:30:00,71.1,68.7,29.82,NW,313,0.0,5.0,92,0.03,,,0.03,0.00,VWS V14.01,2013-08-13 10:30:00,
2013-08-13 06:32:00,71.1,68.7,29.82,NW,312,0.0,5.0,92,0.03,,,0.03,0.00,VWS V14.01,2013-08-13 10:32:00,
2013-08-13 06:37:00,71.1,68.7,29.82,NW,312,1.0,5.0,92,0.04,,,0.04,0.00,VWS V14.01,2013-08-13 10:37:00,
2013-08-13 06:42:00,71.1,68.7,29.82,NW,312,0.0,5.0,92,0.05,,,0.05,0.00,VWS V14.01,2013-08-13 10:42:00,
2013-08-13 06:45:00,71.1,68.7,29.82,NW,312,0.0,5.0,92,0.05,,,0.05,0.00,VWS V14.01,2013-08-13 10:45:00,
2013-08-13 06:47:00,71.1,68.7,29.82,NW,312,0.0,0.0,92,0.05,,,0.05,0.00,VWS V14.01,2013-08-13 10:47:00,
2013-08-13 06:52:00,70.9,68.5,29.82,WNW,302,2.0,6.0,92,0.06,,,0.06,0.00,VWS V14.01,2013-08-13 10:52:00,
2013-08-13 06:57:00,70.9,68.5,29.82,WNW,302,0.0,6.0,92,0.06,,,0.06,0.00,VWS V14.01,2013-08-13 10:57:00,
2013-08-13 07:00:00,70.9,68.5,29.82,WNW,302,0.0,6.0,92,0.06,,,0.06,0.00,VWS V14.01,2013-08-13 11:00:00,
2013-08-13 07:02:00,70.9,68.5,29.82,WNW,288,3.0,6.0,92,0.06,,,0.07,0.00,VWS V14.01,2013-08-13 11:02:00,
2013-08-13 07:07:00,70.8,68.4,29.82,West,279,0.0,6.0,92,0.07,,,0.08,0.00,VWS V14.01,2013-08-13 11:07:00,
2013-08-13 07:12:00,70.8,68.4,29.82,NNW,342,0.0,6.0,92,0.08,,,0.09,0.00,VWS V14.01,2013-08-13 11:12:00,
2013-08-13 07:15:00,70.8,68.4,29.80,NNW,342,0.0,6.0,92,0.08,,,0.09,0.00,VWS V14.01,2013-08-13 11:15:00,
2013-08-13 07:17:00,70.8,68.7,29.80,North,5,0.0,1.0,93,0.08,,,0.10,0.00,VWS V14.01,2013-08-13 11:17:00,
2013-08-13 07:22:00,70.8,68.7,29.80,North,5,0.0,1.0,93,0.09,,,0.11,0.00,VWS V14.01,2013-08-13 11:22:00,
2013-08-13 07:27:00,70.8,68.7,29.80,North,5,0.0,1.0,93,0.10,,,0.12,0.00,VWS V14.01,2013-08-13 11:27:00,
2013-08-13 07:30:00,70.8,68.7,29.80,North,5,0.0,1.0,93,0.10,,,0.12,0.00,VWS V14.01,2013-08-13 11:30:00,
2013-08-13 07:32:00,70.8,68.7,29.80,North,5,0.0,1.0,93,0.10,,,0.13,0.00,VWS V14.01,2013-08-13 11:32:00,
2013-08-13 07:37:00,70.8,68.7,29.80,North,5,0.0,4.0,93,0.12,,,0.15,5.00,VWS V14.01,2013-08-13 11:37:00,
2013-08-13 07:42:00,70.8,69.0,29.80,NE,43,4.0,5.0,94,0.14,,,0.17,5.00,VWS V14.01,2013-08-13 11:42:00,
2013-08-13 07:45:00,70.8,69.0,29.80,WNW,286,4.0,6.0,94,0.14,,,0.17,5.00,VWS V14.01,2013-08-13 11:45:00,
2013-08-13 07:47:00,70.8,69.0,29.80,WNW,290,0.0,4.0,94,0.13,,,0.18,5.00,VWS V14.01,2013-08-13 11:47:00,
2013-08-13 07:52:00,70.8,69.0,29.80,North,355,0.0,4.0,94,0.15,,,0.20,5.00,VWS V14.01,2013-08-13 11:52:00,
2013-08-13 07:57:00,70.6,68.8,29.80,North,355,5.0,6.0,94,0.17,,,0.22,5.00,VWS V14.01,2013-08-13 11:57:00,
2013-08-13 08:00:00,70.6,68.8,29.81,West,277,4.0,7.0,94,0.17,,,0.22,5.00,VWS V14.01,2013-08-13 12:00:00,
2013-08-13 08:02:00,70.6,68.8,29.81,NNW,336,1.0,5.0,94,0.17,,,0.23,0.00,VWS V14.01,2013-08-13 12:02:00,
2013-08-13 08:07:00,70.6,68.8,29.81,West,275,0.0,6.0,94,0.19,,,0.25,0.00,VWS V14.01,2013-08-13 12:07:00,
2013-08-13 08:12:00,70.4,68.6,29.81,North,355,0.0,6.0,94,0.21,,,0.27,0.00,VWS V14.01,2013-08-13 12:12:00,
2013-08-13 08:15:00,70.4,68.6,29.80,WNW,286,0.0,6.0,94,0.22,,,0.28,0.00,VWS V14.01,2013-08-13 12:15:00,
2013-08-13 08:17:00,70.4,68.6,29.80,West,275,0.0,0.0,94,0.21,,,0.30,0.00,VWS V14.01,2013-08-13 12:17:00,
2013-08-13 08:22:00,70.3,68.5,29.80,WSW,252,1.0,8.0,94,0.24,,,0.33,0.00,VWS V14.01,2013-08-13 12:22:00,
2013-08-13 08:27:00,70.3,68.5,29.80,West,268,5.0,8.0,94,0.27,,,0.36,0.00,VWS V14.01,2013-08-13 12:27:00,
2013-08-13 08:30:00,70.1,68.3,29.81,West,259,7.0,8.0,94,0.27,,,0.36,5.00,VWS V14.01,2013-08-13 12:30:00,
2013-08-13 08:32:00,70.1,68.3,29.81,West,259,0.0,7.0,94,0.27,,,0.39,5.00,VWS V14.01,2013-08-13 12:32:00,
2013-08-13 08:37:00,69.9,68.1,29.81,WSW,245,3.0,7.0,94,0.30,,,0.42,5.00,VWS V14.01,2013-08-13 12:37:00,
2013-08-13 08:42:00,69.8,68.0,29.81,West,273,5.0,10.0,94,0.33,,,0.45,5.00,VWS V14.01,2013-08-13 12:42:00,
2013-08-13 08:45:00,69.8,68.0,29.82,West,276,1.0,10.0,94,0.34,,,0.46,5.00,VWS V14.01,2013-08-13 12:45:00,
2013-08-13 08:47:00,69.8,68.0,29.82,West,276,0.0,4.0,94,0.30,,,0.47,0.00,VWS V14.01,2013-08-13 12:47:00,
2013-08-13 08:52:00,69.8,68.0,29.82,West,276,0.0,4.0,94,0.34,,,0.51,0.00,VWS V14.01,2013-08-13 12:52:00,
2013-08-13 08:57:00,69.8,68.0,29.82,West,276,0.0,4.0,94,0.39,,,0.56,0.00,VWS V14.01,2013-08-13 12:57:00,
2013-08-13 09:00:00,69.8,68.0,29.82,West,276,0.0,4.0,94,0.41,,,0.58,0.00,VWS V14.01,2013-08-13 13:00:00,
2013-08-13 09:02:00,69.8,68.0,29.82,WSW,258,5.0,8.0,94,0.38,,,0.60,5.00,VWS V14.01,2013-08-13 13:02:00,
2013-08-13 09:07:00,69.6,67.8,29.82,SW,217,9.0,10.0,94,0.41,,,0.63,11.00,VWS V14.01,2013-08-13 13:07:00,
2013-08-13 09:12:00,69.4,67.6,29.82,ENE,65,5.0,10.0,94,0.44,,,0.66,14.00,VWS V14.01,2013-08-13 13:12:00,
2013-08-13 09:15:00,69.3,67.5,29.78,NE,51,11.0,11.0,94,0.45,,,0.67,14.00,VWS V14.01,2013-08-13 13:15:00,
2013-08-13 09:17:00,69.1,67.0,29.78,East,89,14.0,16.0,93,0.41,,,0.69,18.00,VWS V14.01,2013-08-13 13:17:00,
2013-08-13 09:22:00,68.8,66.7,29.78,NE,54,5.0,19.0,93,0.43,,,0.71,18.00,VWS V14.01,2013-08-13 13:22:00,
2013-08-13 09:27:00,68.6,66.5,29.78,NNW,346,4.0,19.0,93,0.45,,,0.73,16.00,VWS V14.01,2013-08-13 13:27:00,
2013-08-13 09:30:00,68.6,66.5,29.76,NE,46,6.0,19.0,93,0.46,,,0.74,16.00,VWS V14.01,2013-08-13 13:30:00,
2013-08-13 09:32:00,68.4,66.3,29.76,ENE,61,0.0,6.0,93,0.39,,,0.75,16.00,VWS V14.01,2013-08-13 13:32:00,
2013-08-13 09:37:00,68.4,66.3,29.76,NW,315,0.0,6.0,93,0.41,,,0.77,23.00,VWS V14.01,2013-08-13 13:37:00,
2013-08-13 09:42:00,68.3,66.2,29.76,West,263,3.0,6.0,93,0.42,,,0.78,25.00,VWS V14.01,2013-08-13 13:42:00,
2013-08-13 09:45:00,68.3,66.2,29.77,NW,322,4.0,6.0,93,0.42,,,0.78,25.00,VWS V14.01,2013-08-13 13:45:00,
2013-08-13 09:47:00,68.1,66.0,29.77,WSW,252,1.0,7.0,93,0.33,,,0.80,21.00,VWS V14.01,2013-08-13 13:47:00,
2013-08-13 09:52:00,68.1,66.0,29.77,WSW,257,0.0,7.0,93,0.35,,,0.81,28.00,VWS V14.01,2013-08-13 13:52:00,
2013-08-13 09:57:00,68.1,66.3,29.77,WNW,303,0.0,7.0,94,0.38,,,0.84,44.00,VWS V14.01,2013-08-13 13:57:00,
2013-08-13 10:00:00,68.1,66.3,29.77,NW,307,0.0,7.0,94,0.38,,,0.84,47.00,VWS V14.01,2013-08-13 14:00:00,
2013-08-13 10:02:00,68.1,66.3,29.77,NE,40,2.0,5.0,94,0.27,,,0.85,51.00,VWS V14.01,2013-08-13 14:02:00,
2013-08-13 10:07:00,67.6,65.2,29.77,NNE,29,6.0,7.0,92,0.27,,,0.85,56.00,VWS V14.01,2013-08-13 14:07:00,
2013-08-13 10:12:00,67.3,64.9,29.77,ENE,57,0.0,7.0,92,0.28,,,0.86,58.00,VWS V14.01,2013-08-13 14:12:00,
2013-08-13 10:15:00,67.3,64.9,29.77,ENE,57,0.0,7.0,92,0.28,,,0.86,54.00,VWS V14.01,2013-08-13 14:15:00,
2013-08-13 10:17:00,67.3,64.9,29.77,ENE,57,0.0,0.0,92,0.19,,,0.86,47.00,VWS V14.01,2013-08-13 14:17:00,
2013-08-13 10:22:00,67.3,64.9,29.77,ENE,60,0.0,4.0,92,0.20,,,0.87,67.00,VWS V14.01,2013-08-13 14:22:00,
2013-08-13 10:27:00,67.3,65.2,29.77,ENE,60,0.0,4.0,93,0.20,,,0.87,86.00,VWS V14.01,2013-08-13 14:27:00,
2013-08-13 10:30:00,67.4,65.3,29.78,ENE,60,0.0,4.0,93,0.20,,,0.87,109.00,VWS V14.01,2013-08-13 14:30:00,
2013-08-13 10:32:00,67.4,65.3,29.78,ENE,60,0.0,0.0,93,0.14,,,0.88,135.00,VWS V14.01,2013-08-13 14:32:00,
2013-08-13 10:37:00,67.4,65.3,29.78,ENE,60,1.0,4.0,93,0.14,,,0.88,132.00,VWS V14.01,2013-08-13 14:37:00,
2013-08-13 10:42:00,67.6,65.5,29.78,ENE,60,0.0,4.0,93,0.14,,,0.88,120.00,VWS V14.01,2013-08-13 14:42:00,
2013-08-13 10:45:00,67.6,65.5,29.78,ENE,60,0.0,4.0,93,0.14,,,0.88,120.00,VWS V14.01,2013-08-13 14:45:00,
2013-08-13 10:47:00,67.8,65.7,29.78,ENE,60,0.0,0.0,93,0.10,,,0.88,97.00,VWS V14.01,2013-08-13 14:47:00,
2013-08-13 10:52:00,67.8,65.7,29.78,ENE,60,0.0,0.0,93,0.10,,,0.88,90.00,VWS V14.01,2013-08-13 14:52:00,
2013-08-13 10:57:00,67.8,65.7,29.78,ENE,60,0.0,0.0,93,0.10,,,0.88,134.00,VWS V14.01,2013-08-13 14:57:00,
2013-08-13 11:00:00,67.9,66.1,29.76,ENE,60,0.0,0.0,94,0.10,,,0.88,155.00,VWS V14.01,2013-08-13 15:00:00,
2013-08-13 11:02:00,67.9,66.1,29.76,ENE,61,0.0,0.0,94,0.04,,,0.88,185.00,VWS V14.01,2013-08-13 15:02:00,
2013-08-13 11:07:00,68.1,66.0,29.76,ENE,60,0.0,0.0,93,0.04,,,0.88,255.00,VWS V14.01,2013-08-13 15:07:00,
2013-08-13 11:12:00,68.4,66.3,29.76,ENE,60,0.0,0.0,93,0.04,,,0.88,306.00,VWS V14.01,2013-08-13 15:12:00,
2013-08-13 11:15:00,68.6,66.5,29.76,ENE,60,0.0,0.0,93,0.04,,,0.88,313.00,VWS V14.01,2013-08-13 15:15:00,
2013-08-13 11:17:00,68.9,66.8,29.76,ENE,60,0.0,0.0,93,0.02,,,0.88,243.00,VWS V14.01,2013-08-13 15:17:00,
2013-08-13 11:22:00,68.4,66.0,29.76,ENE,60,0.0,0.0,92,0.02,,,0.88,220.00,VWS V14.01,2013-08-13 15:22:00,
2013-08-13 11:27:00,68.8,66.1,29.76,ENE,60,0.0,0.0,91,0.02,,,0.88,204.00,VWS V14.01,2013-08-13 15:27:00,
2013-08-13 11:30:00,68.9,66.5,29.76,ENE,60,0.0,0.0,92,0.02,,,0.88,214.00,VWS V14.01,2013-08-13 15:30:00,
2013-08-13 11:32:00,68.9,65.5,29.76,ENE,60,0.0,0.0,89,0.01,,,0.88,258.00,VWS V14.01,2013-08-13 15:32:00,
2013-08-13 11:37:00,68.9,65.5,29.76,ENE,61,0.0,1.0,89,0.01,,,0.88,287.00,VWS V14.01,2013-08-13 15:37:00,
2013-08-13 11:42:00,69.4,65.7,29.76,ENE,60,0.0,1.0,88,0.01,,,0.88,399.00,VWS V14.01,2013-08-13 15:42:00,
2013-08-13 11:45:00,69.8,66.7,29.76,ENE,60,0.0,1.0,90,0.01,,,0.88,399.00,VWS V14.01,2013-08-13 15:45:00,
2013-08-13 11:47:00,70.1,66.7,29.76,ENE,60,0.0,0.0,89,0.00,,,0.88,438.00,VWS V14.01,2013-08-13 15:47:00,
2013-08-13 11:52:00,70.3,66.6,29.76,ENE,60,0.0,0.0,88,0.00,,,0.88,374.00,VWS V14.01,2013-08-13 15:52:00,
2013-08-13 11:57:00,70.1,65.1,29.76,ENE,60,0.0,0.0,84,0.00,,,0.88,420.00,VWS V14.01,2013-08-13 15:57:00,
2013-08-13 12:00:00,70.3,65.6,29.76,ENE,60,0.0,0.0,85,0.00,,,0.88,415.00,VWS V14.01,2013-08-13 16:00:00,
2013-08-13 12:02:00,71.1,66.4,29.76,ENE,60,0.0,0.0,85,0.00,,,0.88,432.00,VWS V14.01,2013-08-13 16:02:00,
2013-08-13 12:07:00,70.3,64.6,29.76,ENE,60,2.0,2.0,82,0.00,,,0.88,478.00,VWS V14.01,2013-08-13 16:07:00,
2013-08-13 12:12:00,70.8,64.7,29.76,ENE,61,0.0,2.0,81,0.00,,,0.88,547.00,VWS V14.01,2013-08-13 16:12:00,
2013-08-13 12:15:00,70.8,64.7,29.75,ENE,60,0.0,2.0,81,0.00,,,0.88,387.00,VWS V14.01,2013-08-13 16:15:00,
2013-08-13 12:17:00,71.3,65.5,29.75,ENE,60,0.0,0.0,82,0.00,,,0.88,510.00,VWS V14.01,2013-08-13 16:17:00,
2013-08-13 12:22:00,71.6,64.8,29.75,ENE,60,0.0,0.0,79,0.00,,,0.88,343.00,VWS V14.01,2013-08-13 16:22:00,
2013-08-13 12:27:00,71.5,65.0,29.75,WNW,292,0.0,5.0,80,0.00,,,0.88,229.00,VWS V14.01,2013-08-13 16:27:00,
2013-08-13 12:30:00,71.3,64.8,29.76,WNW,294,0.0,5.0,80,0.00,,,0.88,272.00,VWS V14.01,2013-08-13 16:30:00,
2013-08-13 12:32:00,71.8,64.9,29.76,WNW,295,0.0,0.0,79,0.00,,,0.88,383.00,VWS V14.01,2013-08-13 16:32:00,
2013-08-13 12:37:00,72.8,65.9,29.76,WNW,295,0.0,0.0,79,0.00,,,0.88,517.00,VWS V14.01,2013-08-13 16:37:00,
2013-08-13 12:42:00,72.5,65.3,29.76,WNW,294,0.0,0.0,78,0.00,,,0.88,297.00,VWS V14.01,2013-08-13 16:42:00,
2013-08-13 12:45:00,72.1,65.2,29.76,WNW,294,0.0,0.0,79,0.00,,,0.88,294.00,VWS V14.01,2013-08-13 16:45:00,
2013-08-13 12:47:00,72.3,66.2,29.76,WNW,294,0.0,0.0,81,0.00,,,0.88,320.00,VWS V14.01,2013-08-13 16:47:00,
2013-08-13 12:52:00,73.0,65.7,29.76,WNW,294,0.0,0.0,78,0.00,,,0.88,288.00,VWS V14.01,2013-08-13 16:52:00,
2013-08-13 12:57:00,72.8,65.2,29.76,WNW,294,0.0,0.0,77,0.00,,,0.88,642.00,VWS V14.01,2013-08-13 16:57:00,
2013-08-13 13:00:00,73.2,66.3,29.75,WNW,294,0.0,0.0,79,0.00,,,0.88,701.00,VWS V14.01,2013-08-13 17:00:00,
2013-08-13 13:02:00,73.5,65.1,29.75,NW,310,0.0,1.0,75,0.00,,,0.88,352.00,VWS V14.01,2013-08-13 17:02:00,
2013-08-13 13:07:00,72.8,65.2,29.75,North,9,0.0,1.0,77,0.00,,,0.88,413.00,VWS V14.01,2013-08-13 17:07:00,
2013-08-13 13:12:00,74.6,65.8,29.75,North,9,0.0,1.0,74,0.00,,,0.88,413.00,VWS V14.01,2013-08-13 17:12:00,
2013-08-13 13:15:00,74.7,65.9,29.74,North,9,0.0,1.0,74,0.00,,,0.88,1027.00,VWS V14.01,2013-08-13 17:15:00,
2013-08-13 13:17:00,75.8,66.1,29.74,NE,42,0.0,1.0,72,0.00,,,0.88,388.00,VWS V14.01,2013-08-13 17:17:00,
2013-08-13 13:22:00,75.6,65.5,29.74,West,279,0.0,2.0,71,0.00,,,0.88,392.00,VWS V14.01,2013-08-13 17:22:00,
2013-08-13 13:27:00,75.1,65.1,29.74,SW,223,5.0,8.0,71,0.00,,,0.88,1023.00,VWS V14.01,2013-08-13 17:27:00,
2013-08-13 13:30:00,75.3,65.7,29.74,SW,223,0.0,8.0,72,0.00,,,0.88,1062.00,VWS V14.01,2013-08-13 17:30:00,
2013-08-13 13:32:00,76.8,65.0,29.74,SSE,161,0.0,1.0,67,0.00,,,0.88,990.00,VWS V14.01,2013-08-13 17:32:00,
2013-08-13 13:37:00,76.0,65.1,29.74,West,259,4.0,9.0,69,0.00,,,0.88,1067.00,VWS V14.01,2013-08-13 17:37:00,
2013-08-13 13:42:00,76.0,65.5,29.74,SW,219,1.0,9.0,70,0.00,,,0.88,396.00,VWS V14.01,2013-08-13 17:42:00,
2013-08-13 13:45:00,75.6,65.1,29.74,SSW,204,4.0,9.0,70,0.00,,,0.88,374.00,VWS V14.01,2013-08-13 17:45:00,
2013-08-13 13:47:00,74.9,65.3,29.74,SSW,201,0.0,5.0,72,0.00,,,0.88,367.00,VWS V14.01,2013-08-13 17:47:00,
2013-08-13 13:52:00,74.9,66.1,29.74,NW,305,0.0,5.0,74,0.00,,,0.88,287.00,VWS V14.01,2013-08-13 17:52:00,
2013-08-13 13:57:00,75.6,65.9,29.74,WSW,252,3.0,7.0,72,0.00,,,0.88,313.00,VWS V14.01,2013-08-13 17:57:00,
2013-08-13 14:00:00,75.6,66.3,29.74,NNW,342,0.0,7.0,73,0.00,,,0.88,364.00,VWS V14.01,2013-08-13 18:00:00,
2013-08-13 14:02:00,75.6,66.3,29.74,West,273,3.0,6.0,73,0.00,,,0.88,316.00,VWS V14.01,2013-08-13 18:02:00,
2013-08-13 14:07:00,75.1,66.2,29.74,WSW,258,5.0,6.0,74,0.00,,,0.88,329.00,VWS V14.01,2013-08-13 18:07:00,
2013-08-13 14:12:00,74.6,65.8,29.74,West,277,5.0,7.0,74,0.00,,,0.88,313.00,VWS V14.01,2013-08-13 18:12:00,
2013-08-13 14:15:00,74.6,66.2,29.74,West,267,5.0,7.0,75,0.00,,,0.88,316.00,VWS V14.01,2013-08-13 18:15:00,
2013-08-13 14:17:00,74.7,65.9,29.74,WSW,243,6.0,6.0,74,0.00,,,0.88,353.00,VWS V14.01,2013-08-13 18:17:00,
2013-08-13 14:22:00,75.4,66.9,29.74,NW,325,0.0,6.0,75,0.00,,,0.88,930.00,VWS V14.01,2013-08-13 18:22:00,
2013-08-13 14:27:00,75.6,66.3,29.74,West,267,3.0,7.0,73,0.00,,,0.88,930.00,VWS V14.01,2013-08-13 18:27:00,
2013-08-13 14:30:00,75.4,66.2,29.74,West,267,0.0,7.0,73,0.00,,,0.88,930.00,VWS V14.01,2013-08-13 18:30:00,
2013-08-13 14:32:00,75.3,66.1,29.74,West,259,0.0,5.0,73,0.00,,,0.88,930.00,VWS V14.01,2013-08-13 18:32:00,
2013-08-13 14:37:00,75.8,66.5,29.74,SW,234,6.0,7.0,73,0.00,,,0.88,332.00,VWS V14.01,2013-08-13 18:37:00,
2013-08-13 14:42:00,76.1,66.0,29.74,West,260,4.0,9.0,71,0.00,,,0.88,889.00,VWS V14.01,2013-08-13 18:42:00,
2013-08-13 14:45:00,76.1,66.4,29.73,West,261,0.0,9.0,72,0.00,,,0.88,889.00,VWS V14.01,2013-08-13 18:45:00,
2013-08-13 14:47:00,76.5,65.6,29.73,West,271,8.0,8.0,69,0.00,,,0.88,821.00,VWS V14.01,2013-08-13 18:47:00,
2013-08-13 14:52:00,77.0,66.5,29.73,WNW,286,0.0,8.0,70,0.00,,,0.88,851.00,VWS V14.01,2013-08-13 18:52:00,
2013-08-13 14:57:00,78.1,65.8,29.73,NW,325,0.0,8.0,66,0.00,,,0.88,239.00,VWS V14.01,2013-08-13 18:57:00,
2013-08-13 15:00:00,77.9,65.6,29.72,WSW,240,4.0,8.0,66,0.00,,,0.88,863.00,VWS V14.01,2013-08-13 19:00:00,
2013-08-13 15:02:00,77.2,65.8,29.72,SW,233,8.0,8.0,68,0.00,,,0.88,826.00,VWS V14.01,2013-08-13 19:02:00,
2013-08-13 15:07:00,76.8,65.0,29.72,SW,236,4.0,8.0,67,0.00,,,0.88,290.00,VWS V14.01,2013-08-13 19:07:00,
2013-08-13 15:12:00,77.0,66.1,29.72,WSW,246,5.0,8.0,69,0.00,,,0.88,773.00,VWS V14.01,2013-08-13 19:12:00,
2013-08-13 15:15:00,77.0,65.6,29.71,SW,233,5.0,8.0,68,0.00,,,0.88,719.00,VWS V14.01,2013-08-13 19:15:00,
2013-08-13 15:17:00,78.1,67.5,29.71,WSW,252,0.0,7.0,70,0.00,,,0.88,768.00,VWS V14.01,2013-08-13 19:17:00,
2013-08-13 15:22:00,79.6,65.9,29.71,WSW,253,5.0,7.0,63,0.00,,,0.88,726.00,VWS V14.01,2013-08-13 19:22:00,
2013-08-13 15:27:00,77.9,65.2,29.71,West,263,2.0,7.0,65,0.00,,,0.88,759.00,VWS V14.01,2013-08-13 19:27:00,
2013-08-13 15:30:00,77.7,65.4,29.71,West,267,0.0,7.0,66,0.00,,,0.88,759.00,VWS V14.01,2013-08-13 19:30:00,
2013-08-13 15:32:00,78.3,66.4,29.71,WSW,249,6.0,6.0,67,0.00,,,0.88,744.00,VWS V14.01,2013-08-13 19:32:00,
2013-08-13 15:37:00,78.6,65.9,29.71,WSW,257,0.0,9.0,65,0.00,,,0.88,745.00,VWS V14.01,2013-08-13 19:37:00,
2013-08-13 15:42:00,78.6,66.3,29.71,WNW,283,2.0,9.0,66,0.00,,,0.88,751.00,VWS V14.01,2013-08-13 19:42:00,
2013-08-13 15:45:00,78.8,66.9,29.71,NW,305,0.0,9.0,67,0.00,,,0.88,322.00,VWS V14.01,2013-08-13 19:45:00,
2013-08-13 15:47:00,79.4,67.1,29.71,WSW,242,4.0,7.0,66,0.00,,,0.88,712.00,VWS V14.01,2013-08-13 19:47:00,
2013-08-13 15:52:00,79.6,67.2,29.71,WNW,296,0.0,7.0,66,0.00,,,0.88,691.00,VWS V14.01,2013-08-13 19:52:00,
2013-08-13 15:57:00,79.4,66.2,29.71,West,261,7.0,7.0,64,0.00,,,0.88,220.00,VWS V14.01,2013-08-13 19:57:00,
2013-08-13 16:00:00,79.2,66.0,29.70,NNW,338,4.0,7.0,64,0.00,,,0.88,700.00,VWS V14.01,2013-08-13 20:00:00,
2013-08-13 16:02:00,79.4,66.6,29.70,NNW,341,2.0,5.0,65,0.00,,,0.88,705.00,VWS V14.01,2013-08-13 20:02:00,
2013-08-13 16:07:00,79.6,66.8,29.70,WSW,251,0.0,8.0,65,0.00,,,0.88,253.00,VWS V14.01,2013-08-13 20:07:00,
2013-08-13 16:12:00,80.1,66.8,29.70,NNW,327,0.0,8.0,64,0.00,,,0.88,689.00,VWS V14.01,2013-08-13 20:12:00,
2013-08-13 16:15:00,80.3,66.6,29.70,NNW,329,1.0,8.0,63,0.00,,,0.88,689.00,VWS V14.01,2013-08-13 20:15:00,
2013-08-13 16:17:00,79.6,66.4,29.70,WNW,282,4.0,7.0,64,0.00,,,0.88,689.00,VWS V14.01,2013-08-13 20:17:00,
2013-08-13 16:22:00,79.0,66.2,29.70,WNW,287,0.0,7.0,65,0.00,,,0.88,601.00,VWS V14.01,2013-08-13 20:22:00,
2013-08-13 16:27:00,79.9,66.7,29.70,WSW,257,4.0,7.0,64,0.00,,,0.88,592.00,VWS V14.01,2013-08-13 20:27:00,
2013-08-13 16:30:00,79.8,67.0,29.70,WSW,246,1.0,7.0,65,0.00,,,0.88,587.00,VWS V14.01,2013-08-13 20:30:00,
2013-08-13 16:32:00,79.6,66.8,29.70,West,277,7.0,9.0,65,0.00,,,0.88,554.00,VWS V14.01,2013-08-13 20:32:00,
2013-08-13 16:37:00,80.1,66.4,29.70,WSW,247,1.0,9.0,63,0.00,,,0.88,540.00,VWS V14.01,2013-08-13 20:37:00,
2013-08-13 16:42:00,80.1,66.8,29.70,WSW,251,1.0,9.0,64,0.00,,,0.88,343.00,VWS V14.01,2013-08-13 20:42:00,
2013-08-13 16:45:00,80.1,67.3,29.70,West,264,4.0,9.0,65,0.00,,,0.88,343.00,VWS V14.01,2013-08-13 20:45:00,
2013-08-13 16:47:00,79.6,66.8,29.70,West,271,5.0,8.0,65,0.00,,,0.88,415.00,VWS V14.01,2013-08-13 20:47:00,
2013-08-13 16:53:00,78.8,66.9,29.70,SSW,207,1.0,8.0,67,0.00,,,0.88,531.00,VWS V14.01,2013-08-13 20:53:00,
2013-08-13 16:58:00,79.2,67.3,29.70,West,271,3.0,8.0,67,0.00,,,0.88,506.00,VWS V14.01,2013-08-13 20:58:00,
2013-08-13 17:00:00,79.2,66.9,29.70,WSW,255,4.0,8.0,66,0.00,,,0.88,506.00,VWS V14.01,2013-08-13 21:00:00,
2013-08-13 17:03:00,79.2,67.3,29.70,WSW,248,1.0,6.0,67,0.00,,,0.88,151.00,VWS V14.01,2013-08-13 21:03:00,
2013-08-13 17:08:00,78.6,67.2,29.70,WSW,250,0.0,6.0,68,0.00,,,0.88,176.00,VWS V14.01,2013-08-13 21:08:00,
2013-08-13 17:13:00,78.5,67.1,29.70,SSW,202,0.0,6.0,68,0.00,,,0.88,434.00,VWS V14.01,2013-08-13 21:13:00,
2013-08-13 17:15:00,78.5,67.1,29.70,West,265,0.0,6.0,68,0.00,,,0.88,434.00,VWS V14.01,2013-08-13 21:15:00,
2013-08-13 17:18:00,78.3,67.3,29.70,WSW,257,0.0,4.0,69,0.00,,,0.88,459.00,VWS V14.01,2013-08-13 21:18:00,
2013-08-13 17:23:00,78.3,66.9,29.70,West,267,5.0,7.0,68,0.00,,,0.88,290.00,VWS V14.01,2013-08-13 21:23:00,
2013-08-13 17:28:00,78.3,67.3,29.70,West,265,3.0,7.0,69,0.00,,,0.88,392.00,VWS V14.01,2013-08-13 21:28:00,
2013-08-13 17:30:00,78.3,66.9,29.70,West,267,4.0,7.0,68,0.00,,,0.88,392.00,VWS V14.01,2013-08-13 21:30:00,
2013-08-13 17:33:00,78.5,66.6,29.70,WNW,283,4.0,7.0,67,0.00,,,0.88,366.00,VWS V14.01,2013-08-13 21:33:00,
2013-08-13 17:38:00,78.8,66.9,29.70,SW,227,5.0,7.0,67,0.00,,,0.88,381.00,VWS V14.01,2013-08-13 21:38:00,
2013-08-13 17:43:00,79.0,67.6,29.69,WSW,247,5.0,7.0,68,0.00,,,0.88,366.00,VWS V14.01,2013-08-13 21:43:00,
2013-08-13 17:45:00,79.0,66.7,29.69,WSW,254,6.0,8.0,66,0.00,,,0.88,353.00,VWS V14.01,2013-08-13 21:45:00,
2013-08-13 17:48:00,78.6,66.7,29.69,West,273,0.0,10.0,67,0.00,,,0.88,327.00,VWS V14.01,2013-08-13 21:48:00,
2013-08-13 17:53:00,79.0,66.7,29.69,WSW,248,0.0,10.0,66,0.00,,,0.88,309.00,VWS V14.01,2013-08-13 21:53:00,
2013-08-13 17:58:00,79.0,66.7,29.69,West,261,3.0,10.0,66,0.00,,,0.88,304.00,VWS V14.01,2013-08-13 21:58:00,
2013-08-13 18:00:00,79.0,67.1,29.69,West,260,1.0,10.0,67,0.00,,,0.88,302.00,VWS V14.01,2013-08-13 22:00:00,
2013-08-13 18:03:00,79.0,66.7,29.69,WSW,245,5.0,9.0,66,0.00,,,0.88,290.00,VWS V14.01,2013-08-13 22:03:00,
2013-08-13 18:08:00,79.4,67.5,29.69,SW,223,5.0,9.0,67,0.00,,,0.88,276.00,VWS V14.01,2013-08-13 22:08:00,
2013-08-13 18:13:00,79.4,67.1,29.69,WSW,250,0.0,9.0,66,0.00,,,0.88,257.00,VWS V14.01,2013-08-13 22:13:00,
2013-08-13 18:15:00,79.2,66.9,29.69,WSW,252,0.0,9.0,66,0.00,,,0.88,255.00,VWS V14.01,2013-08-13 22:15:00,
2013-08-13 18:18:00,79.2,67.3,29.69,SSW,213,0.0,8.0,67,0.00,,,0.88,246.00,VWS V14.01,2013-08-13 22:18:00,
2013-08-13 18:23:00,79.0,67.1,29.69,WSW,250,6.0,11.0,67,0.00,,,0.88,239.00,VWS V14.01,2013-08-13 22:23:00,
2013-08-13 18:28:00,78.6,67.6,29.69,West,279,0.0,11.0,69,0.00,,,0.88,223.00,VWS V14.01,2013-08-13 22:28:00,
2013-08-13 18:30:00,78.6,67.2,29.69,SW,232,5.0,11.0,68,0.00,,,0.88,223.00,VWS V14.01,2013-08-13 22:30:00,
2013-08-13 18:33:00,78.6,67.2,29.69,West,268,5.0,6.0,68,0.00,,,0.88,211.00,VWS V14.01,2013-08-13 22:33:00,
2013-08-13 18:38:00,78.6,67.6,29.69,WSW,256,0.0,7.0,69,0.00,,,0.88,158.00,VWS V14.01,2013-08-13 22:38:00,
2013-08-13 18:43:00,78.5,67.5,29.68,West,264,6.0,7.0,69,0.00,,,0.88,142.00,VWS V14.01,2013-08-13 22:43:00,
2013-08-13 18:45:00,78.5,67.1,29.68,WSW,238,4.0,7.0,68,0.00,,,0.88,163.00,VWS V14.01,2013-08-13 22:45:00,
2013-08-13 18:48:00,78.3,67.3,29.68,WSW,240,0.0,5.0,69,0.00,,,0.88,86.00,VWS V14.01,2013-08-13 22:48:00,
2013-08-13 18:53:00,78.3,67.7,29.68,WSW,238,0.0,5.0,70,0.00,,,0.88,79.00,VWS V14.01,2013-08-13 22:53:00,
2013-08-13 18:58:00,78.1,67.9,29.68,WSW,239,0.0,5.0,71,0.00,,,0.88,81.00,VWS V14.01,2013-08-13 22:58:00,
2013-08-13 19:00:00,77.9,67.8,29.68,WSW,239,0.0,5.0,71,0.00,,,0.88,72.00,VWS V14.01,2013-08-13 23:00:00,
2013-08-13 19:03:00,77.9,67.8,29.68,WSW,240,0.0,0.0,71,0.00,,,0.88,67.00,VWS V14.01,2013-08-13 23:03:00,
2013-08-13 19:08:00,77.7,67.6,29.68,WSW,240,0.0,0.0,71,0.00,,,0.88,63.00,VWS V14.01,2013-08-13 23:08:00,
2013-08-13 19:13:00,77.6,67.5,29.69,SW,229,2.0,4.0,71,0.00,,,0.88,51.00,VWS V14.01,2013-08-13 23:13:00,
2013-08-13 19:15:00,77.6,67.5,29.69,SW,229,0.0,4.0,71,0.00,,,0.88,51.00,VWS V14.01,2013-08-13 23:15:00,
2013-08-13 19:18:00,77.4,67.3,29.69,SW,224,4.0,4.0,71,0.00,,,0.88,53.00,VWS V14.01,2013-08-13 23:18:00,
2013-08-13 19:23:00,77.2,67.1,29.69,SW,225,0.0,4.0,71,0.00,,,0.88,39.00,VWS V14.01,2013-08-13 23:23:00,
2013-08-13 19:28:00,76.8,66.7,29.70,SW,222,0.0,6.0,71,0.00,,,0.88,30.00,VWS V14.01,2013-08-13 23:28:00,
2013-08-13 19:30:00,76.8,67.1,29.70,SW,222,0.0,6.0,72,0.00,,,0.88,28.00,VWS V14.01,2013-08-13 23:30:00,
2013-08-13 19:33:00,76.7,67.0,29.70,South,188,2.0,7.0,72,0.00,,,0.88,23.00,VWS V14.01,2013-08-13 23:33:00,
2013-08-13 19:38:00,76.5,67.6,29.70,West,271,0.0,7.0,74,0.00,,,0.88,18.00,VWS V14.01,2013-08-13 23:38:00,
2013-08-13 19:43:00,76.1,67.2,29.71,SW,221,2.0,9.0,74,0.00,,,0.88,11.00,VWS V14.01,2013-08-13 23:43:00,
2013-08-13 19:45:00,76.0,67.5,29.71,SW,228,2.0,9.0,75,0.00,,,0.88,11.00,VWS V14.01,2013-08-13 23:45:00,
2013-08-13 19:48:00,75.8,67.3,29.71,West,259,0.0,6.0,75,0.00,,,0.88,7.00,VWS V14.01,2013-08-13 23:48:00,
2013-08-13 19:53:00,75.6,67.5,29.71,WSW,244,2.0,7.0,76,0.00,,,0.88,0.00,VWS V14.01,2013-08-13 23:53:00,
2013-08-13 19:58:00,75.3,67.2,29.71,SW,216,0.0,7.0,76,0.00,,,0.88,0.00,VWS V14.01,2013-08-13 23:58:00,
2013-08-13 20:00:00,75.3,67.2,29.71,SW,218,0.0,7.0,76,0.00,,,0.88,0.00,VWS V14.01,2013-08-14 00:00:00,
2013-08-13 20:03:00,75.3,67.6,29.71,SSW,213,3.0,4.0,77,0.00,,,0.88,0.00,VWS V14.01,2013-08-14 00:03:00,
2013-08-13 20:08:00,75.1,67.4,29.71,SW,215,0.0,7.0,77,0.00,,,0.88,0.00,VWS V14.01,2013-08-14 00:08:00,
2013-08-13 20:13:00,74.9,67.2,29.71,WSW,244,0.0,7.0,77,0.00,,,0.88,0.00,VWS V14.01,2013-08-14 00:13:00,
2013-08-13 20:15:00,74.9,67.2,29.71,West,268,4.0,7.0,77,0.00,,,0.88,0.00,VWS V14.01,2013-08-14 00:15:00,
2013-08-13 20:18:00,74.9,67.2,29.71,SW,231,1.0,6.0,77,0.00,,,0.88,0.00,VWS V14.01,2013-08-14 00:18:00,
2013-08-13 20:23:00,74.7,67.4,29.71,SSW,207,5.0,9.0,78,0.00,,,0.88,0.00,VWS V14.01,2013-08-14 00:23:00,
2013-08-13 20:28:00,74.6,67.3,29.71,SW,225,0.0,9.0,78,0.00,,,0.88,0.00,VWS V14.01,2013-08-14 00:28:00,
2013-08-13 20:30:00,74.6,67.3,29.71,SW,225,0.0,9.0,78,0.00,,,0.88,0.00,VWS V14.01,2013-08-14 00:30:00,
2013-08-13 20:33:00,74.2,66.5,29.71,NE,53,3.0,15.0,77,0.00,,,0.88,0.00,VWS V14.01,2013-08-14 00:33:00,
2013-08-13 20:38:00,72.7,63.9,29.71,NNW,329,6.0,16.0,74,0.00,,,0.88,0.00,VWS V14.01,2013-08-14 00:38:00,
2013-08-13 20:43:00,71.6,63.6,29.73,NE,44,7.0,16.0,76,0.00,,,0.88,0.00,VWS V14.01,2013-08-14 00:43:00,
2013-08-13 20:45:00,71.5,63.9,29.73,NNW,328,3.0,16.0,77,0.00,,,0.88,0.00,VWS V14.01,2013-08-14 00:45:00,
2013-08-13 20:48:00,70.8,64.3,29.73,NNE,33,0.0,6.0,80,0.00,,,0.88,0.00,VWS V14.01,2013-08-14 00:48:00,
2013-08-13 20:53:00,70.4,64.3,29.73,NNE,33,0.0,6.0,81,0.01,,,0.89,0.00,VWS V14.01,2013-08-14 00:53:00,
2013-08-13 20:58:00,70.3,64.2,29.75,NNE,33,0.0,6.0,81,0.03,,,0.91,0.00,VWS V14.01,2013-08-14 00:58:00,
2013-08-13 21:00:00,70.1,64.0,29.75,NNE,33,0.0,6.0,81,0.03,,,0.91,0.00,VWS V14.01,2013-08-14 01:00:00,
2013-08-13 21:03:00,69.4,64.0,29.75,NNE,33,0.0,1.0,83,0.05,,,0.93,0.00,VWS V14.01,2013-08-14 01:03:00,
2013-08-13 21:08:00,69.1,64.1,29.75,NNE,33,0.0,1.0,84,0.08,,,0.96,0.00,VWS V14.01,2013-08-14 01:08:00,
2013-08-13 21:13:00,68.8,64.1,29.76,NNE,33,0.0,1.0,85,0.09,,,0.97,0.00,VWS V14.01,2013-08-14 01:13:00,
2013-08-13 21:15:00,68.6,63.9,29.76,NNE,33,0.0,1.0,85,0.09,,,0.97,0.00,VWS V14.01,2013-08-14 01:15:00,
2013-08-13 21:18:00,68.3,63.6,29.76,NNE,33,0.0,0.0,85,0.09,,,0.97,0.00,VWS V14.01,2013-08-14 01:18:00,
2013-08-13 21:23:00,68.1,63.8,29.76,NNE,33,0.0,0.0,86,0.09,,,0.97,0.00,VWS V14.01,2013-08-14 01:23:00,
2013-08-13 21:28:00,67.9,63.9,29.76,NNE,33,0.0,0.0,87,0.09,,,0.97,0.00,VWS V14.01,2013-08-14 01:28:00,
2013-08-13 21:30:00,67.9,63.9,29.76,NNE,33,0.0,0.0,87,0.09,,,0.97,0.00,VWS V14.01,2013-08-14 01:30:00,
2013-08-13 21:33:00,67.8,64.1,29.76,NNE,33,0.0,0.0,88,0.09,,,0.97,0.00,VWS V14.01,2013-08-14 01:33:00,
2013-08-13 21:38:00,67.6,63.9,29.76,NNE,33,0.0,0.0,88,0.09,,,0.97,0.00,VWS V14.01,2013-08-14 01:38:00,
2013-08-13 21:43:00,67.4,64.1,29.76,NNE,33,0.0,0.0,89,0.09,,,0.97,0.00,VWS V14.01,2013-08-14 01:43:00,
2013-08-13 21:45:00,67.6,64.2,29.76,NNE,33,0.0,0.0,89,0.09,,,0.97,0.00,VWS V14.01,2013-08-14 01:45:00,
2013-08-13 21:48:00,67.4,64.1,29.76,NNE,33,0.0,0.0,89,0.09,,,0.97,0.00,VWS V14.01,2013-08-14 01:48:00,
2013-08-13 21:53:00,67.3,64.0,29.76,NNE,33,0.0,0.0,89,0.09,,,0.97,0.00,VWS V14.01,2013-08-14 01:53:00,
2013-08-13 21:58:00,67.3,64.3,29.75,NNE,33,0.0,0.0,90,0.09,,,0.97,0.00,VWS V14.01,2013-08-14 01:58:00,
2013-08-13 22:00:00,67.3,64.3,29.75,NNE,33,0.0,0.0,90,0.09,,,0.97,0.00,VWS V14.01,2013-08-14 02:00:00,
2013-08-13 22:03:00,67.1,64.1,29.75,NNE,33,0.0,0.0,90,0.06,,,0.97,0.00,VWS V14.01,2013-08-14 02:03:00,
2013-08-13 22:08:00,66.9,63.9,29.75,NNE,33,0.0,0.0,90,0.06,,,0.97,0.00,VWS V14.01,2013-08-14 02:08:00,
2013-08-13 22:13:00,66.9,64.2,29.76,NNE,33,0.0,0.0,91,0.06,,,0.97,0.00,VWS V14.01,2013-08-14 02:13:00,
2013-08-13 22:15:00,66.9,64.2,29.76,NNE,33,0.0,0.0,91,0.06,,,0.97,0.00,VWS V14.01,2013-08-14 02:15:00,
2013-08-13 22:18:00,66.8,64.1,29.76,NNE,33,0.0,0.0,91,0.00,,,0.97,0.00,VWS V14.01,2013-08-14 02:18:00,
2013-08-13 22:23:00,66.8,64.1,29.76,NNE,33,0.0,0.0,91,0.00,,,0.97,0.00,VWS V14.01,2013-08-14 02:23:00,
2013-08-13 22:28:00,66.6,63.9,29.76,NNE,33,0.0,0.0,91,0.00,,,0.97,0.00,VWS V14.01,2013-08-14 02:28:00,
2013-08-13 22:30:00,66.6,63.9,29.76,NNE,33,0.0,0.0,91,0.00,,,0.97,0.00,VWS V14.01,2013-08-14 02:30:00,
2013-08-13 22:33:00,66.4,63.7,29.76,NNE,33,0.0,0.0,91,0.00,,,0.97,0.00,VWS V14.01,2013-08-14 02:33:00,
2013-08-13 22:38:00,66.3,63.6,29.76,NNE,33,0.0,0.0,91,0.00,,,0.97,0.00,VWS V14.01,2013-08-14 02:38:00,
2013-08-13 22:43:00,66.1,63.4,29.76,NNE,33,0.0,0.0,91,0.00,,,0.97,0.00,VWS V14.01,2013-08-14 02:43:00,
2013-08-13 22:45:00,66.1,63.4,29.76,NNE,33,0.0,0.0,91,0.00,,,0.97,0.00,VWS V14.01,2013-08-14 02:45:00,
2013-08-13 22:48:00,66.1,63.4,29.76,NNE,33,0.0,0.0,91,0.00,,,0.97,0.00,VWS V14.01,2013-08-14 02:48:00,
2013-08-13 22:53:00,66.0,63.3,29.76,NNE,33,0.0,0.0,91,0.00,,,0.97,0.00,VWS V14.01,2013-08-14 02:53:00,
2013-08-13 22:58:00,65.8,63.4,29.77,NNE,33,0.0,0.0,92,0.00,,,0.97,0.00,VWS V14.01,2013-08-14 02:58:00,
2013-08-13 23:00:00,65.8,63.4,29.77,NNE,33,0.0,0.0,92,0.00,,,0.97,0.00,VWS V14.01,2013-08-14 03:00:00,
2013-08-13 23:03:00,65.8,63.4,29.77,NNE,33,0.0,0.0,92,0.00,,,0.97,0.00,VWS V14.01,2013-08-14 03:03:00,
2013-08-13 23:08:00,65.8,63.4,29.77,NNE,33,0.0,0.0,92,0.00,,,0.97,0.00,VWS V14.01,2013-08-14 03:08:00,
2013-08-13 23:13:00,66.0,63.6,29.77,NNE,33,0.0,0.0,92,0.00,,,0.97,0.00,VWS V14.01,2013-08-14 03:13:00,
2013-08-13 23:15:00,66.0,63.6,29.77,NNE,33,0.0,0.0,92,0.00,,,0.97,0.00,VWS V14.01,2013-08-14 03:15:00,
2013-08-13 23:18:00,66.0,63.6,29.77,NNE,33,0.0,0.0,92,0.00,,,0.97,0.00,VWS V14.01,2013-08-14 03:18:00,
2013-08-13 23:23:00,66.0,63.9,29.77,NNE,33,0.0,0.0,93,0.00,,,0.97,0.00,VWS V14.01,2013-08-14 03:23:00,
2013-08-13 23:28:00,66.0,63.9,29.78,NNE,33,0.0,0.0,93,0.00,,,0.97,0.00,VWS V14.01,2013-08-14 03:28:00,
2013-08-13 23:30:00,66.0,63.9,29.78,NNE,33,0.0,0.0,93,0.00,,,0.97,0.00,VWS V14.01,2013-08-14 03:30:00,
2013-08-13 23:33:00,65.8,63.7,29.78,NNE,33,0.0,0.0,93,0.00,,,0.97,0.00,VWS V14.01,2013-08-14 03:33:00,
2013-08-13 23:38:00,65.8,63.7,29.78,NNE,33,1.0,1.0,93,0.00,,,0.97,0.00,VWS V14.01,2013-08-14 03:38:00,
2013-08-13 23:43:00,65.6,63.5,29.79,NNE,33,0.0,3.0,93,0.00,,,0.97,0.00,VWS V14.01,2013-08-14 03:43:00,
2013-08-13 23:45:00,65.6,63.5,29.79,NNE,33,0.0,3.0,93,0.00,,,0.97,0.00,VWS V14.01,2013-08-14 03:45:00,
2013-08-13 23:48:00,65.5,63.4,29.79,NNE,33,1.0,3.0,93,0.00,,,0.97,0.00,VWS V14.01,2013-08-14 03:48:00,
2013-08-13 23:53:00,65.3,63.2,29.79,NNE,33,0.0,3.0,93,0.00,,,0.97,0.00,VWS V14.01,2013-08-14 03:53:00,
2013-08-13 23:58:00,65.2,62.8,29.79,NNE,33,0.0,3.0,92,0.00,,,0.97,0.00,VWS V14.01,2013-08-14 03:58:00,